Petersburg, WV

10:24 PM EDT on April 28, 2017 (GMT -0400)
Petersburg

Weather History for KW99 - November, 2012

Change the Weather History Date:

Friday, November 9, 2012

  Actual Average (KEKN) Record (KEKN)
Temperature  
Mean Temperature 44 °F -  
Max Temperature 62 °F 55 °F 79 °F (1975)
Min Temperature 25 °F 29 °F 6 °F (1976)
Degree Days  
Heating Degree Days 22    
Moisture  
Dew Point 30 °F    
Average Humidity 70    
Maximum Humidity 90    
Minimum Humidity 30    
Precipitation  
Precipitation 0.00 in - - ()
Sea Level Pressure  
Sea Level Pressure 30.21 in    
Wind  
Wind Speed 0 mph (North)    
Max Wind Speed 0 mph    
Max Gust Speed -    
Visibility 9 miles    
Events      
Averages and records for this station are not official NWS values.
T = Trace of Precipitation, MM = Missing Value Source: NWS Daily Summary

Daily Weather History Graph

Daily Weather History Graph

Search for Another Location

Airport or City:

Trip Planner

Search our weather history database for the weather conditions in past years. The results will help you decide how hot, cold, wet, or windy it might be!

Date:

Astronomy

Nov. 09, 2012 Rise Set
Actual Time 6:53 AM EST 5:07 PM EST
Civil Twilight 6:25 AM EST 5:35 PM EST
Nautical Twilight 5:53 AM EST 6:07 PM EST
Astronomical Twilight 5:21 AM EST 6:38 PM EST
Moon 1:52 AM EST (11/9) 2:17 PM EST (11/9)
Length of Visible Light 11h 10m
Length of Day
10h 13m
Waning Crescent, 23% of the Moon is Illuminated
Nov 9
Waning Crescent
Nov 13
New
Nov 20
First Quarter
Nov 28
Full
Dec 6
Last Quarter

Hourly Weather History & Observations

Time (EST) Temp. Dew Point Humidity Pressure Visibility Wind Dir Wind Speed Gust Speed Precip Events Conditions
12:15 AM 32.5 °F 28.2 °F 84% 30.16 in 10.0 mi Calm Calm - N/A   Clear
12:35 AM 32.0 °F 27.3 °F 83% 30.16 in 10.0 mi Calm Calm - N/A   Clear
12:55 AM 32.0 °F 27.5 °F 83% 30.16 in 10.0 mi Calm Calm - N/A   Clear
1:15 AM 30.9 °F 26.6 °F 84% 30.16 in 10.0 mi Calm Calm - N/A   Clear
1:35 AM 30.0 °F 25.5 °F 83% 30.16 in 10.0 mi Calm Calm - N/A   Clear
1:55 AM 30.6 °F 26.6 °F 85% 30.16 in 10.0 mi Calm Calm - N/A   Clear
2:15 AM 29.5 °F 25.9 °F 86% 30.17 in 10.0 mi Calm Calm - N/A   Clear
2:35 AM 27.9 °F 24.3 °F 86% 30.16 in 10.0 mi Calm Calm - N/A   Clear
2:55 AM 29.3 °F 25.9 °F 87% 30.16 in 10.0 mi Calm Calm - N/A   Clear
3:15 AM 27.3 °F 23.9 °F 87% 30.16 in 10.0 mi Calm Calm - N/A   Clear
3:35 AM 26.1 °F 23.0 °F 88% 30.17 in 10.0 mi Calm Calm - N/A   Clear
3:55 AM 27.7 °F 24.4 °F 88% 30.17 in 7.0 mi Calm Calm - N/A   Clear
4:15 AM 27.5 °F 24.4 °F 88% 30.18 in 7.0 mi Calm Calm - N/A   Clear
4:35 AM 26.4 °F 23.7 °F 90% 30.19 in 7.0 mi Calm Calm - N/A   Clear
4:55 AM 27.1 °F 24.4 °F 90% 30.19 in 7.0 mi Calm Calm - N/A   Clear
5:15 AM 25.7 °F 23.2 °F 90% 30.19 in 7.0 mi Calm Calm - N/A   Clear
5:35 AM 26.8 °F 24.1 °F 90% 30.20 in 7.0 mi Calm Calm - N/A   Clear
5:55 AM 27.3 °F 24.6 °F 90% 30.21 in 7.0 mi Calm Calm - N/A   Clear
6:15 AM 26.4 °F 23.7 °F 90% 30.22 in 7.0 mi Calm Calm - N/A   Clear
6:35 AM 26.1 °F 23.4 °F 90% 30.22 in 7.0 mi Calm Calm - N/A   Clear
6:55 AM 26.4 °F 23.9 °F 90% 30.22 in 7.0 mi Calm Calm - N/A   Clear
7:15 AM 26.6 °F 24.1 °F 90% 30.23 in 5.0 mi Calm Calm - N/A   Clear
7:35 AM 28.0 °F 25.3 °F 90% 30.24 in 5.0 mi Calm Calm - N/A   Clear
7:55 AM 29.5 °F 26.8 °F 90% 30.25 in 5.0 mi Calm Calm - N/A   Clear
8:15 AM 31.3 °F 28.4 °F 89% 30.25 in 5.0 mi Calm Calm - N/A   Clear
8:35 AM 33.1 °F 29.8 °F 88% 30.25 in 5.0 mi Calm Calm - N/A   Clear
8:55 AM 34.9 °F 30.6 °F 84% 30.25 in 5.0 mi Calm Calm - N/A   Haze
9:15 AM 37.0 °F 31.6 °F 81% 30.25 in 7.0 mi Calm Calm - N/A   Clear
9:55 AM 43.2 °F 33.3 °F 68% 30.25 in 7.0 mi Calm Calm - N/A   Clear
10:15 AM 46.8 °F 34.7 °F 63% 30.25 in 10.0 mi Calm Calm - N/A   Clear
10:35 AM 50.4 °F 33.1 °F 52% 30.25 in 10.0 mi Calm Calm - N/A   Clear
10:55 AM 51.8 °F 32.4 °F 48% 30.25 in 10.0 mi Calm Calm - N/A   Clear
11:15 AM 52.7 °F 32.7 °F 47% 30.25 in 10.0 mi Calm Calm - N/A   Clear
11:35 AM 54.9 °F 33.1 °F 44% 30.24 in 7.0 mi Calm Calm - N/A   Clear
11:55 AM 55.9 °F 33.1 °F 42% 30.23 in 10.0 mi Calm Calm - N/A   Clear
12:15 PM 55.9 °F 32.5 °F 41% 30.22 in 10.0 mi Calm Calm - N/A   Clear
12:35 PM 57.7 °F 32.7 °F 39% 30.21 in 10.0 mi Calm Calm - N/A   Clear
12:55 PM 59.0 °F 33.4 °F 38% 30.20 in 10.0 mi Calm Calm - N/A   Clear
1:15 PM 59.0 °F 33.1 °F 38% 30.19 in 10.0 mi Calm Calm - N/A   Clear
1:35 PM 60.1 °F 33.1 °F 36% 30.19 in 10.0 mi Calm Calm - N/A   Clear
1:55 PM 60.3 °F 32.7 °F 35% 30.18 in 10.0 mi Calm Calm - N/A   Clear
2:15 PM 60.3 °F 32.0 °F 34% 30.18 in 10.0 mi Calm Calm - N/A   Clear
2:35 PM 61.0 °F 32.2 °F 34% 30.17 in 10.0 mi Calm Calm - N/A   Clear
2:55 PM 61.9 °F 32.2 °F 33% 30.17 in 10.0 mi Calm Calm - N/A   Clear
3:15 PM 61.9 °F 31.6 °F 32% 30.17 in 10.0 mi Calm Calm - N/A   Clear
3:35 PM 61.9 °F 32.0 °F 33% 30.16 in 10.0 mi Calm Calm - N/A   Clear
3:55 PM 62.1 °F 31.5 °F 32% 30.16 in 10.0 mi Calm Calm - N/A   Clear
4:15 PM 61.7 °F 30.2 °F 30% 30.17 in 10.0 mi Calm Calm - N/A   Clear
4:35 PM 60.6 °F 31.1 °F 33% 30.17 in 10.0 mi Calm Calm - N/A   Clear
4:55 PM 51.8 °F 37.4 °F 58% 30.17 in 10.0 mi Calm Calm - N/A   Clear
5:15 PM 49.6 °F 35.1 °F 57% 30.18 in 10.0 mi Calm Calm - N/A   Clear
5:35 PM 47.1 °F 34.9 °F 62% 30.19 in 10.0 mi Calm Calm - N/A   Clear
5:55 PM 48.9 °F 34.3 °F 57% 30.20 in 10.0 mi Calm Calm - N/A   Clear
6:15 PM 45.1 °F 34.5 °F 66% 30.21 in 10.0 mi Calm Calm - N/A   Clear
6:35 PM 43.9 °F 34.3 °F 69% 30.21 in 10.0 mi Calm Calm - N/A   Clear
6:55 PM 43.0 °F 33.3 °F 69% 30.21 in 10.0 mi Calm Calm - N/A   Clear
7:15 PM 40.8 °F 33.4 °F 75% 30.21 in 10.0 mi Calm Calm - N/A   Clear
7:35 PM 40.1 °F 32.9 °F 75% 30.22 in 10.0 mi Calm Calm - N/A   Clear
7:55 PM 40.1 °F 35.2 °F 83% 30.23 in 10.0 mi Calm Calm - N/A   Clear
8:15 PM 38.7 °F 32.7 °F 79% 30.23 in 10.0 mi Calm Calm - N/A   Clear
8:35 PM 39.2 °F 33.4 °F 80% 30.22 in 10.0 mi Calm Calm - N/A   Clear
8:55 PM 38.7 °F 33.8 °F 83% 30.23 in 10.0 mi Calm Calm - N/A   Clear
9:15 PM 37.4 °F 32.9 °F 84% 30.23 in 10.0 mi Calm Calm - N/A   Clear
9:35 PM 36.7 °F 32.9 °F 86% 30.23 in 7.0 mi Calm Calm - N/A   Clear
9:55 PM 36.0 °F 32.2 °F 86% 30.24 in 10.0 mi Calm Calm - N/A   Clear
10:15 PM 34.2 °F 30.7 °F 87% 30.23 in 10.0 mi Calm Calm - N/A   Clear
10:35 PM 34.9 °F 31.6 °F 88% 30.23 in 10.0 mi Calm Calm - N/A   Clear
10:55 PM 32.9 °F 30.0 °F 89% 30.23 in 7.0 mi Calm Calm - N/A   Clear
11:15 PM 32.9 °F 30.4 °F 90% 30.24 in 10.0 mi Calm Calm - N/A   Clear
11:35 PM 33.8 °F 30.4 °F 87% 30.24 in 10.0 mi Calm Calm - N/A   Clear
11:55 PM 33.8 °F 30.7 °F 89% 30.24 in 7.0 mi Calm Calm - N/A   Clear